sensor_id;sensor_type;location;lat;lon;timestamp;temperature;humidity
63445;DHT22;49573;47.682;9.170;2022-12-17T00:02:18;-3276.40;84.10
63445;DHT22;49573;47.682;9.170;2022-12-17T00:05:23;-3276.40;84.10
63445;DHT22;49573;47.682;9.170;2022-12-17T00:08:27;-3276.30;84.10
63445;DHT22;49573;47.682;9.170;2022-12-17T00:11:32;-3276.40;84.30
63445;DHT22;49573;47.682;9.170;2022-12-17T00:14:38;-3276.30;84.30
63445;DHT22;49573;47.682;9.170;2022-12-17T00:18:01;-3276.30;84.30
63445;DHT22;49573;47.682;9.170;2022-12-17T00:21:06;-3276.20;84.20
63445;DHT22;49573;47.682;9.170;2022-12-17T00:24:10;-3276.30;84.20
63445;DHT22;49573;47.682;9.170;2022-12-17T00:27:14;-3276.30;84.10
63445;DHT22;49573;47.682;9.170;2022-12-17T00:30:20;-3276.20;84.20
63445;DHT22;49573;47.682;9.170;2022-12-17T00:33:25;-3276.20;84.30
63445;DHT22;49573;47.682;9.170;2022-12-17T00:36:29;-3276.20;84.40
63445;DHT22;49573;47.682;9.170;2022-12-17T00:39:34;-3276.20;84.50
63445;DHT22;49573;47.682;9.170;2022-12-17T00:42:39;-3276.10;84.50
63445;DHT22;49573;47.682;9.170;2022-12-17T00:45:45;-3276.20;84.50
63445;DHT22;49573;47.682;9.170;2022-12-17T00:48:49;-3276.10;84.50
63445;DHT22;49573;47.682;9.170;2022-12-17T00:51:54;-3276.10;84.40
63445;DHT22;49573;47.682;9.170;2022-12-17T00:54:58;-3276.10;84.40
63445;DHT22;49573;47.682;9.170;2022-12-17T00:58:03;-3276.10;84.50
63445;DHT22;49573;47.682;9.170;2022-12-17T01:01:09;-3276.00;84.30
63445;DHT22;49573;47.682;9.170;2022-12-17T01:04:14;-3276.00;84.30
63445;DHT22;49573;47.682;9.170;2022-12-17T01:07:19;-3275.90;84.10
63445;DHT22;49573;47.682;9.170;2022-12-17T01:10:23;-3275.80;83.40
63445;DHT22;49573;47.682;9.170;2022-12-17T01:13:28;-3275.70;83.40
63445;DHT22;49573;47.682;9.170;2022-12-17T01:16:34;-3275.60;83.70
63445;DHT22;49573;47.682;9.170;2022-12-17T01:19:38;-3275.60;83.90
63445;DHT22;49573;47.682;9.170;2022-12-17T01:22:44;-3275.50;84.00
63445;DHT22;49573;47.682;9.170;2022-12-17T01:25:51;-3275.40;84.00
63445;DHT22;49573;47.682;9.170;2022-12-17T01:28:56;-3275.30;83.60
63445;DHT22;49573;47.682;9.170;2022-12-17T01:32:04;-3275.30;83.80
63445;DHT22;49573;47.682;9.170;2022-12-17T01:35:09;-3275.30;83.40
63445;DHT22;49573;47.682;9.170;2022-12-17T01:38:15;-3275.20;83.40
63445;DHT22;49573;47.682;9.170;2022-12-17T01:41:20;-3275.10;83.50
63445;DHT22;49573;47.682;9.170;2022-12-17T01:44:48;-3275.00;83.80
63445;DHT22;49573;47.682;9.170;2022-12-17T01:48:04;-3275.00;83.90
63445;DHT22;49573;47.682;9.170;2022-12-17T01:51:12;-3274.90;84.00
63445;DHT22;49573;47.682;9.170;2022-12-17T01:54:18;-3274.90;83.60
63445;DHT22;49573;47.682;9.170;2022-12-17T01:57:24;-3274.80;83.60
63445;DHT22;49573;47.682;9.170;2022-12-17T02:00:29;-3274.80;83.50
63445;DHT22;49573;47.682;9.170;2022-12-17T02:03:35;-3274.70;83.60
63445;DHT22;49573;47.682;9.170;2022-12-17T02:06:42;-3274.70;83.80
63445;DHT22;49573;47.682;9.170;2022-12-17T02:10:01;-3274.60;83.70
63445;DHT22;49573;47.682;9.170;2022-12-17T02:13:12;-3274.60;83.50
63445;DHT22;49573;47.682;9.170;2022-12-17T02:16:21;-3274.50;83.60
63445;DHT22;49573;47.682;9.170;2022-12-17T02:19:36;-3274.50;83.50
63445;DHT22;49573;47.682;9.170;2022-12-17T02:22:52;-3274.50;83.40
63445;DHT22;49573;47.682;9.170;2022-12-17T02:26:03;-3274.40;83.50
63445;DHT22;49573;47.682;9.170;2022-12-17T02:29:11;-3274.40;83.60
63445;DHT22;49573;47.682;9.170;2022-12-17T02:32:18;-3274.30;83.80
63445;DHT22;49573;47.682;9.170;2022-12-17T02:35:28;-3274.30;83.80
63445;DHT22;49573;47.682;9.170;2022-12-17T02:38:34;-3274.20;83.90
63445;DHT22;49573;47.682;9.170;2022-12-17T02:41:42;-3274.20;84.00
63445;DHT22;49573;47.682;9.170;2022-12-17T02:44:50;-3274.10;84.00
63445;DHT22;49573;47.682;9.170;2022-12-17T02:47:55;-3274.10;84.00
63445;DHT22;49573;47.682;9.170;2022-12-17T02:51:00;-3274.10;84.00
63445;DHT22;49573;47.682;9.170;2022-12-17T02:54:05;-3274.10;83.90
63445;DHT22;49573;47.682;9.170;2022-12-17T02:57:09;-3274.00;83.80
63445;DHT22;49573;47.682;9.170;2022-12-17T03:00:16;-3273.90;83.90
63445;DHT22;49573;47.682;9.170;2022-12-17T03:03:20;-3273.90;84.10
63445;DHT22;49573;47.682;9.170;2022-12-17T03:06:25;-3273.90;84.10
63445;DHT22;49573;47.682;9.170;2022-12-17T03:09:29;-3273.80;84.10
63445;DHT22;49573;47.682;9.170;2022-12-17T03:12:34;-3273.80;84.20
63445;DHT22;49573;47.682;9.170;2022-12-17T03:15:40;-3273.80;84.10
63445;DHT22;49573;47.682;9.170;2022-12-17T03:18:45;-3273.70;84.20
63445;DHT22;49573;47.682;9.170;2022-12-17T03:21:49;-3273.70;84.20
63445;DHT22;49573;47.682;9.170;2022-12-17T03:24:54;-3273.70;84.30
63445;DHT22;49573;47.682;9.170;2022-12-17T03:28:02;-3273.60;84.20
63445;DHT22;49573;47.682;9.170;2022-12-17T03:31:08;-3273.60;84.30
63445;DHT22;49573;47.682;9.170;2022-12-17T03:34:13;-3273.60;84.40
63445;DHT22;49573;47.682;9.170;2022-12-17T03:37:18;-3273.60;84.60
63445;DHT22;49573;47.682;9.170;2022-12-17T03:40:22;-3273.60;84.70
63445;DHT22;49573;47.682;9.170;2022-12-17T03:43:27;-3273.50;84.40
63445;DHT22;49573;47.682;9.170;2022-12-17T03:46:33;-3273.40;84.20
63445;DHT22;49573;47.682;9.170;2022-12-17T03:49:38;-3273.30;84.20
63445;DHT22;49573;47.682;9.170;2022-12-17T03:52:42;-3273.30;84.20
63445;DHT22;49573;47.682;9.170;2022-12-17T03:55:47;-3273.30;84.20
63445;DHT22;49573;47.682;9.170;2022-12-17T03:58:52;-3273.20;84.50
63445;DHT22;49573;47.682;9.170;2022-12-17T04:01:57;-3273.20;84.30
63445;DHT22;49573;47.682;9.170;2022-12-17T04:05:02;-3273.20;84.20
63445;DHT22;49573;47.682;9.170;2022-12-17T04:08:07;-3273.10;84.20
63445;DHT22;49573;47.682;9.170;2022-12-17T04:11:12;-3273.20;84.30
63445;DHT22;49573;47.682;9.170;2022-12-17T04:14:16;-3273.10;84.20
63445;DHT22;49573;47.682;9.170;2022-12-17T04:17:39;-3273.10;84.10
63445;DHT22;49573;47.682;9.170;2022-12-17T04:20:43;-3273.10;84.10
63445;DHT22;49573;47.682;9.170;2022-12-17T04:23:48;-3273.10;84.10
63445;DHT22;49573;47.682;9.170;2022-12-17T04:26:53;-3273.00;84.10
63445;DHT22;49573;47.682;9.170;2022-12-17T04:29:58;-3273.00;84.10
63445;DHT22;49573;47.682;9.170;2022-12-17T04:33:04;-3272.90;84.10
63445;DHT22;49573;47.682;9.170;2022-12-17T04:36:09;-3272.90;84.10
63445;DHT22;49573;47.682;9.170;2022-12-17T04:39:13;-3272.90;84.10
63445;DHT22;49573;47.682;9.170;2022-12-17T04:42:18;-3272.80;84.00
63445;DHT22;49573;47.682;9.170;2022-12-17T04:45:23;-3272.80;83.70
63445;DHT22;49573;47.682;9.170;2022-12-17T04:48:29;-3272.70;83.80
63445;DHT22;49573;47.682;9.170;2022-12-17T04:51:34;-3272.70;83.90
63445;DHT22;49573;47.682;9.170;2022-12-17T04:54:38;-3272.70;83.80
63445;DHT22;49573;47.682;9.170;2022-12-17T04:57:43;-3272.60;83.80
63445;DHT22;49573;47.682;9.170;2022-12-17T05:00:50;-3272.60;83.90
63445;DHT22;49573;47.682;9.170;2022-12-17T05:03:56;-3272.60;83.70
63445;DHT22;49573;47.682;9.170;2022-12-17T05:07:00;-3272.60;83.70
63445;DHT22;49573;47.682;9.170;2022-12-17T05:10:05;-3272.50;83.60
63445;DHT22;49573;47.682;9.170;2022-12-17T05:13:10;-3272.50;83.70
63445;DHT22;49573;47.682;9.170;2022-12-17T05:16:15;-3272.50;83.80
63445;DHT22;49573;47.682;9.170;2022-12-17T05:19:21;-3272.50;83.90
63445;DHT22;49573;47.682;9.170;2022-12-17T05:22:25;-3272.50;84.10
63445;DHT22;49573;47.682;9.170;2022-12-17T05:25:56;-3272.50;84.10
63445;DHT22;49573;47.682;9.170;2022-12-17T05:29:06;-3272.50;83.90
63445;DHT22;49573;47.682;9.170;2022-12-17T05:32:10;-3272.40;83.90
63445;DHT22;49573;47.682;9.170;2022-12-17T05:35:33;-3272.40;84.00
63445;DHT22;49573;47.682;9.170;2022-12-17T05:38:38;-3272.40;83.80
63445;DHT22;49573;47.682;9.170;2022-12-17T05:41:42;-3272.30;83.90
63445;DHT22;49573;47.682;9.170;2022-12-17T05:44:47;-3272.30;83.60
63445;DHT22;49573;47.682;9.170;2022-12-17T05:47:56;-3272.30;83.80
63445;DHT22;49573;47.682;9.170;2022-12-17T05:51:02;-3272.30;83.90
63445;DHT22;49573;47.682;9.170;2022-12-17T05:54:07;-3272.30;83.80
63445;DHT22;49573;47.682;9.170;2022-12-17T05:57:12;-3272.30;83.80
63445;DHT22;49573;47.682;9.170;2022-12-17T06:00:16;-3272.20;83.80
63445;DHT22;49573;47.682;9.170;2022-12-17T06:03:21;-3272.20;83.60
63445;DHT22;49573;47.682;9.170;2022-12-17T06:06:27;-3272.20;83.50
63445;DHT22;49573;47.682;9.170;2022-12-17T06:09:32;-3272.10;83.40
63445;DHT22;49573;47.682;9.170;2022-12-17T06:12:36;-3272.10;83.50
63445;DHT22;49573;47.682;9.170;2022-12-17T06:15:41;-3272.10;83.60
63445;DHT22;49573;47.682;9.170;2022-12-17T06:18:46;-3272.10;83.70
63445;DHT22;49573;47.682;9.170;2022-12-17T06:21:52;-3272.00;83.50
63445;DHT22;49573;47.682;9.170;2022-12-17T06:24:56;-3272.00;83.50
63445;DHT22;49573;47.682;9.170;2022-12-17T06:28:01;-3272.00;83.60
63445;DHT22;49573;47.682;9.170;2022-12-17T06:31:06;-3271.90;83.50
63445;DHT22;49573;47.682;9.170;2022-12-17T06:34:11;-3271.90;83.60
63445;DHT22;49573;47.682;9.170;2022-12-17T06:37:17;-3271.90;83.80
63445;DHT22;49573;47.682;9.170;2022-12-17T06:40:21;-3272.00;84.00
63445;DHT22;49573;47.682;9.170;2022-12-17T06:43:26;-3271.90;83.70
63445;DHT22;49573;47.682;9.170;2022-12-17T06:46:31;-3271.90;83.70
63445;DHT22;49573;47.682;9.170;2022-12-17T06:49:35;-3271.90;83.70
63445;DHT22;49573;47.682;9.170;2022-12-17T06:52:42;-3271.90;83.50
63445;DHT22;49573;47.682;9.170;2022-12-17T06:55:46;-3271.90;83.70
63445;DHT22;49573;47.682;9.170;2022-12-17T06:58:51;-3271.90;83.60
63445;DHT22;49573;47.682;9.170;2022-12-17T07:01:55;-3271.90;83.70
63445;DHT22;49573;47.682;9.170;2022-12-17T07:05:00;-3271.90;83.70
63445;DHT22;49573;47.682;9.170;2022-12-17T07:08:09;-3271.90;83.50
63445;DHT22;49573;47.682;9.170;2022-12-17T07:11:14;-3271.90;83.70
63445;DHT22;49573;47.682;9.170;2022-12-17T07:14:19;-3271.80;83.50
63445;DHT22;49573;47.682;9.170;2022-12-17T07:17:23;-3271.80;83.60
63445;DHT22;49573;47.682;9.170;2022-12-17T07:20:28;-3271.90;83.70
63445;DHT22;49573;47.682;9.170;2022-12-17T07:23:33;-3271.80;83.60
63445;DHT22;49573;47.682;9.170;2022-12-17T07:26:38;-3271.90;83.70
63445;DHT22;49573;47.682;9.170;2022-12-17T07:29:42;-3271.90;83.80
63445;DHT22;49573;47.682;9.170;2022-12-17T07:32:56;-3271.90;83.80
63445;DHT22;49573;47.682;9.170;2022-12-17T07:36:01;-3271.90;83.70
63445;DHT22;49573;47.682;9.170;2022-12-17T07:39:08;-3271.90;83.70
63445;DHT22;49573;47.682;9.170;2022-12-17T07:42:12;-3272.00;83.80
63445;DHT22;49573;47.682;9.170;2022-12-17T07:45:17;-3272.00;83.70
63445;DHT22;49573;47.682;9.170;2022-12-17T07:48:22;-3272.00;83.70
63445;DHT22;49573;47.682;9.170;2022-12-17T07:51:26;-3272.10;83.70
63445;DHT22;49573;47.682;9.170;2022-12-17T07:54:32;-3272.10;83.80
63445;DHT22;49573;47.682;9.170;2022-12-17T07:57:37;-3272.20;83.60
63445;DHT22;49573;47.682;9.170;2022-12-17T08:00:42;-3272.20;83.60
63445;DHT22;49573;47.682;9.170;2022-12-17T08:03:46;-3272.30;83.50
63445;DHT22;49573;47.682;9.170;2022-12-17T08:06:51;-3272.40;83.60
63445;DHT22;49573;47.682;9.170;2022-12-17T08:09:57;-3272.60;83.60
63445;DHT22;49573;47.682;9.170;2022-12-17T08:13:03;-3272.60;83.60
63445;DHT22;49573;47.682;9.170;2022-12-17T08:16:09;-3272.80;83.80
63445;DHT22;49573;47.682;9.170;2022-12-17T08:19:13;-3272.90;83.90
63445;DHT22;49573;47.682;9.170;2022-12-17T08:22:18;-3273.00;83.70
63445;DHT22;49573;47.682;9.170;2022-12-17T08:25:24;-3273.20;83.80
63445;DHT22;49573;47.682;9.170;2022-12-17T08:28:29;-3273.20;83.80
63445;DHT22;49573;47.682;9.170;2022-12-17T08:31:34;-3273.40;83.60
63445;DHT22;49573;47.682;9.170;2022-12-17T08:34:38;-3273.60;83.30
63445;DHT22;49573;47.682;9.170;2022-12-17T08:37:43;-3273.70;83.60
63445;DHT22;49573;47.682;9.170;2022-12-17T08:40:49;-3273.90;83.50
63445;DHT22;49573;47.682;9.170;2022-12-17T08:43:54;-3274.10;83.30
63445;DHT22;49573;47.682;9.170;2022-12-17T08:46:59;-3274.10;83.10
63445;DHT22;49573;47.682;9.170;2022-12-17T08:50:04;-3274.40;83.20
63445;DHT22;49573;47.682;9.170;2022-12-17T08:53:09;-3274.50;82.30
63445;DHT22;49573;47.682;9.170;2022-12-17T08:56:15;-3274.70;82.40
63445;DHT22;49573;47.682;9.170;2022-12-17T08:59:20;-3275.10;82.40
63445;DHT22;49573;47.682;9.170;2022-12-17T09:02:24;-3275.00;81.50
63445;DHT22;49573;47.682;9.170;2022-12-17T09:05:29;-3275.20;81.80
63445;DHT22;49573;47.682;9.170;2022-12-17T09:08:34;-3275.40;82.20
63445;DHT22;49573;47.682;9.170;2022-12-17T09:11:40;-3275.20;81.00
63445;DHT22;49573;47.682;9.170;2022-12-17T09:14:45;-3275.20;81.10
63445;DHT22;49573;47.682;9.170;2022-12-17T09:17:50;-3275.20;81.50
63445;DHT22;49573;47.682;9.170;2022-12-17T09:20:55;-3275.30;81.60
63445;DHT22;49573;47.682;9.170;2022-12-17T09:23:59;-3275.30;81.20
63445;DHT22;49573;47.682;9.170;2022-12-17T09:27:06;-3275.20;80.90
63445;DHT22;49573;47.682;9.170;2022-12-17T09:30:11;-3275.10;80.70
63445;DHT22;49573;47.682;9.170;2022-12-17T09:33:16;-3275.30;81.10
63445;DHT22;49573;47.682;9.170;2022-12-17T09:36:21;-3275.50;80.60
63445;DHT22;49573;47.682;9.170;2022-12-17T09:39:25;-3275.80;80.90
63445;DHT22;49573;47.682;9.170;2022-12-17T09:42:37;-3275.90;79.10
63445;DHT22;49573;47.682;9.170;2022-12-17T09:45:52;-3276.00;79.70
63445;DHT22;49573;47.682;9.170;2022-12-17T09:49:03;-3276.40;79.20
63445;DHT22;49573;47.682;9.170;2022-12-17T09:52:17;0.00;77.10
63445;DHT22;49573;47.682;9.170;2022-12-17T09:55:25;0.20;77.60
63445;DHT22;49573;47.682;9.170;2022-12-17T09:58:35;0.00;76.20
63445;DHT22;49573;47.682;9.170;2022-12-17T10:01:39;0.00;76.10
63445;DHT22;49573;47.682;9.170;2022-12-17T10:04:44;0.00;76.60
63445;DHT22;49573;47.682;9.170;2022-12-17T10:07:51;0.30;76.90
63445;DHT22;49573;47.682;9.170;2022-12-17T10:11:08;0.90;76.30
63445;DHT22;49573;47.682;9.170;2022-12-17T10:14:19;1.00;75.60
63445;DHT22;49573;47.682;9.170;2022-12-17T10:17:24;0.80;76.30
63445;DHT22;49573;47.682;9.170;2022-12-17T10:20:32;0.80;75.80
63445;DHT22;49573;47.682;9.170;2022-12-17T10:23:37;1.00;75.40
63445;DHT22;49573;47.682;9.170;2022-12-17T10:26:47;1.00;75.50
63445;DHT22;49573;47.682;9.170;2022-12-17T10:29:56;1.10;75.20
63445;DHT22;49573;47.682;9.170;2022-12-17T10:33:04;0.90;74.40
63445;DHT22;49573;47.682;9.170;2022-12-17T10:36:20;1.20;74.80
63445;DHT22;49573;47.682;9.170;2022-12-17T10:39:25;1.00;73.70
63445;DHT22;49573;47.682;9.170;2022-12-17T10:42:37;1.20;74.90
63445;DHT22;49573;47.682;9.170;2022-12-17T10:45:57;1.10;74.50
63445;DHT22;49573;47.682;9.170;2022-12-17T10:49:07;1.10;74.30
63445;DHT22;49573;47.682;9.170;2022-12-17T10:52:23;1.20;74.40
63445;DHT22;49573;47.682;9.170;2022-12-17T10:55:31;1.10;74.00
63445;DHT22;49573;47.682;9.170;2022-12-17T10:58:41;1.20;73.70
63445;DHT22;49573;47.682;9.170;2022-12-17T11:01:47;1.50;74.60
63445;DHT22;49573;47.682;9.170;2022-12-17T11:05:02;1.60;73.20
63445;DHT22;49573;47.682;9.170;2022-12-17T11:08:07;1.70;73.30
63445;DHT22;49573;47.682;9.170;2022-12-17T11:11:14;2.00;73.20
63445;DHT22;49573;47.682;9.170;2022-12-17T11:14:19;2.30;73.30
63445;DHT22;49573;47.682;9.170;2022-12-17T11:17:26;2.10;72.60
63445;DHT22;49573;47.682;9.170;2022-12-17T11:20:39;2.70;71.30
63445;DHT22;49573;47.682;9.170;2022-12-17T11:23:47;2.70;72.20
63445;DHT22;49573;47.682;9.170;2022-12-17T11:26:55;2.60;71.80
63445;DHT22;49573;47.682;9.170;2022-12-17T11:29:59;2.70;71.10
63445;DHT22;49573;47.682;9.170;2022-12-17T11:33:12;3.00;70.50
63445;DHT22;49573;47.682;9.170;2022-12-17T11:36:26;3.00;69.80
63445;DHT22;49573;47.682;9.170;2022-12-17T11:39:40;3.20;70.20
63445;DHT22;49573;47.682;9.170;2022-12-17T11:42:52;3.40;68.80
63445;DHT22;49573;47.682;9.170;2022-12-17T11:46:15;3.70;68.20
63445;DHT22;49573;47.682;9.170;2022-12-17T11:49:31;3.90;68.00
63445;DHT22;49573;47.682;9.170;2022-12-17T11:52:45;4.00;67.70
63445;DHT22;49573;47.682;9.170;2022-12-17T11:55:56;4.30;66.00
63445;DHT22;49573;47.682;9.170;2022-12-17T11:59:08;4.80;66.20
63445;DHT22;49573;47.682;9.170;2022-12-17T12:02:31;5.30;64.60
63445;DHT22;49573;47.682;9.170;2022-12-17T12:05:47;6.20;62.50
63445;DHT22;49573;47.682;9.170;2022-12-17T12:08:59;6.90;61.30
63445;DHT22;49573;47.682;9.170;2022-12-17T12:12:12;7.90;59.40
63445;DHT22;49573;47.682;9.170;2022-12-17T12:15:24;9.00;56.30
63445;DHT22;49573;47.682;9.170;2022-12-17T12:18:37;10.30;53.10
63445;DHT22;49573;47.682;9.170;2022-12-17T12:21:54;10.80;53.90
63445;DHT22;49573;47.682;9.170;2022-12-17T12:25:28;11.20;51.10
63445;DHT22;49573;47.682;9.170;2022-12-17T12:28:41;12.90;50.20
63445;DHT22;49573;47.682;9.170;2022-12-17T12:31:52;12.90;44.90
63445;DHT22;49573;47.682;9.170;2022-12-17T12:34:58;13.70;45.50
63445;DHT22;49573;47.682;9.170;2022-12-17T12:38:07;14.30;44.00
63445;DHT22;49573;47.682;9.170;2022-12-17T12:41:20;15.00;42.50
63445;DHT22;49573;47.682;9.170;2022-12-17T12:44:33;14.90;39.90
63445;DHT22;49573;47.682;9.170;2022-12-17T12:47:46;14.80;42.50
63445;DHT22;49573;47.682;9.170;2022-12-17T12:50:59;16.00;39.70
63445;DHT22;49573;47.682;9.170;2022-12-17T12:54:24;16.30;39.20
63445;DHT22;49573;47.682;9.170;2022-12-17T12:57:31;16.70;37.20
63445;DHT22;49573;47.682;9.170;2022-12-17T13:00:38;17.10;37.10
63445;DHT22;49573;47.682;9.170;2022-12-17T13:03:50;17.10;36.20
63445;DHT22;49573;47.682;9.170;2022-12-17T13:06:56;16.70;35.20
63445;DHT22;49573;47.682;9.170;2022-12-17T13:09:48;17.00;35.30
63445;DHT22;49573;47.682;9.170;2022-12-17T13:12:42;17.60;35.80
63445;DHT22;49573;47.682;9.170;2022-12-17T13:15:35;17.70;34.80
63445;DHT22;49573;47.682;9.170;2022-12-17T13:18:26;18.20;33.70
63445;DHT22;49573;47.682;9.170;2022-12-17T13:21:25;18.30;34.20
63445;DHT22;49573;47.682;9.170;2022-12-17T13:24:22;18.40;33.20
63445;DHT22;49573;47.682;9.170;2022-12-17T13:27:29;18.50;33.30
63445;DHT22;49573;47.682;9.170;2022-12-17T13:30:22;18.50;33.40
63445;DHT22;49573;47.682;9.170;2022-12-17T13:33:22;18.10;32.40
63445;DHT22;49573;47.682;9.170;2022-12-17T13:36:16;18.30;32.90
63445;DHT22;49573;47.682;9.170;2022-12-17T13:39:08;18.70;32.60
63445;DHT22;49573;47.682;9.170;2022-12-17T13:41:56;18.70;32.30
63445;DHT22;49573;47.682;9.170;2022-12-17T13:44:45;18.90;33.10
63445;DHT22;49573;47.682;9.170;2022-12-17T13:47:33;18.80;31.80
63445;DHT22;49573;47.682;9.170;2022-12-17T13:50:22;18.50;32.90
63445;DHT22;49573;47.682;9.170;2022-12-17T13:53:09;18.60;32.00
63445;DHT22;49573;47.682;9.170;2022-12-17T13:55:57;18.30;32.80
63445;DHT22;49573;47.682;9.170;2022-12-17T13:58:43;18.40;32.80
63445;DHT22;49573;47.682;9.170;2022-12-17T14:01:31;18.30;33.10
63445;DHT22;49573;47.682;9.170;2022-12-17T14:04:22;17.40;33.40
63445;DHT22;49573;47.682;9.170;2022-12-17T14:07:09;17.30;32.50
63445;DHT22;49573;47.682;9.170;2022-12-17T14:09:55;17.10;34.00
63445;DHT22;49573;47.682;9.170;2022-12-17T14:12:42;16.80;34.30
63445;DHT22;49573;47.682;9.170;2022-12-17T14:15:28;16.70;33.70
63445;DHT22;49573;47.682;9.170;2022-12-17T14:18:19;16.40;34.70
63445;DHT22;49573;47.682;9.170;2022-12-17T14:21:07;16.50;35.50
63445;DHT22;49573;47.682;9.170;2022-12-17T14:23:55;16.40;33.90
63445;DHT22;49573;47.682;9.170;2022-12-17T14:26:48;16.30;34.50
63445;DHT22;49573;47.682;9.170;2022-12-17T14:29:45;16.50;34.50
63445;DHT22;49573;47.682;9.170;2022-12-17T14:32:34;16.30;34.70
63445;DHT22;49573;47.682;9.170;2022-12-17T14:35:27;15.50;36.30
63445;DHT22;49573;47.682;9.170;2022-12-17T14:38:16;14.30;37.90
63445;DHT22;49573;47.682;9.170;2022-12-17T14:41:06;13.60;40.20
63445;DHT22;49573;47.682;9.170;2022-12-17T14:44:18;13.70;39.60
63445;DHT22;49573;47.682;9.170;2022-12-17T14:47:14;13.30;40.00
63445;DHT22;49573;47.682;9.170;2022-12-17T14:50:05;12.30;41.70
63445;DHT22;49573;47.682;9.170;2022-12-17T14:52:55;11.60;42.70
63445;DHT22;49573;47.682;9.170;2022-12-17T14:55:51;10.70;44.50
63445;DHT22;49573;47.682;9.170;2022-12-17T14:58:44;10.10;45.60
63445;DHT22;49573;47.682;9.170;2022-12-17T15:01:31;9.30;47.60
63445;DHT22;49573;47.682;9.170;2022-12-17T15:04:17;8.70;49.00
63445;DHT22;49573;47.682;9.170;2022-12-17T15:07:04;8.00;50.20
63445;DHT22;49573;47.682;9.170;2022-12-17T15:09:53;7.40;51.70
63445;DHT22;49573;47.682;9.170;2022-12-17T15:12:41;6.90;53.10
63445;DHT22;49573;47.682;9.170;2022-12-17T15:15:27;6.30;54.60
63445;DHT22;49573;47.682;9.170;2022-12-17T15:18:13;5.90;55.50
63445;DHT22;49573;47.682;9.170;2022-12-17T15:21:00;5.50;56.70
63445;DHT22;49573;47.682;9.170;2022-12-17T15:23:47;5.20;57.60
63445;DHT22;49573;47.682;9.170;2022-12-17T15:26:34;5.00;58.30
63445;DHT22;49573;47.682;9.170;2022-12-17T15:29:20;4.70;58.80
63445;DHT22;49573;47.682;9.170;2022-12-17T15:32:07;4.30;59.90
63445;DHT22;49573;47.682;9.170;2022-12-17T15:34:55;4.10;60.60
63445;DHT22;49573;47.682;9.170;2022-12-17T15:37:41;3.80;61.50
63445;DHT22;49573;47.682;9.170;2022-12-17T15:40:27;3.50;62.40
63445;DHT22;49573;47.682;9.170;2022-12-17T15:43:15;3.30;63.50
63445;DHT22;49573;47.682;9.170;2022-12-17T15:46:01;3.00;64.70
63445;DHT22;49573;47.682;9.170;2022-12-17T15:48:47;2.80;64.80
63445;DHT22;49573;47.682;9.170;2022-12-17T15:51:33;2.70;65.10
63445;DHT22;49573;47.682;9.170;2022-12-17T15:54:19;2.60;65.50
63445;DHT22;49573;47.682;9.170;2022-12-17T15:57:06;2.40;66.00
63445;DHT22;49573;47.682;9.170;2022-12-17T15:59:53;2.30;66.20
63445;DHT22;49573;47.682;9.170;2022-12-17T16:02:39;2.10;66.60
63445;DHT22;49573;47.682;9.170;2022-12-17T16:05:25;1.90;66.70
63445;DHT22;49573;47.682;9.170;2022-12-17T16:08:12;1.80;67.60
63445;DHT22;49573;47.682;9.170;2022-12-17T16:10:58;1.70;67.80
63445;DHT22;49573;47.682;9.170;2022-12-17T16:13:44;1.50;68.30
63445;DHT22;49573;47.682;9.170;2022-12-17T16:16:31;1.40;68.50
63445;DHT22;49573;47.682;9.170;2022-12-17T16:19:17;1.30;69.10
63445;DHT22;49573;47.682;9.170;2022-12-17T16:22:03;1.20;69.20
63445;DHT22;49573;47.682;9.170;2022-12-17T16:24:50;0.90;69.50
63445;DHT22;49573;47.682;9.170;2022-12-17T16:27:37;0.70;70.30
63445;DHT22;49573;47.682;9.170;2022-12-17T16:30:26;0.70;70.20
63445;DHT22;49573;47.682;9.170;2022-12-17T16:33:13;0.50;70.50
63445;DHT22;49573;47.682;9.170;2022-12-17T16:36:00;0.50;70.60
63445;DHT22;49573;47.682;9.170;2022-12-17T16:38:48;0.30;70.70
63445;DHT22;49573;47.682;9.170;2022-12-17T16:41:34;0.30;70.60
63445;DHT22;49573;47.682;9.170;2022-12-17T16:44:20;0.20;71.10
63445;DHT22;49573;47.682;9.170;2022-12-17T16:47:06;0.10;71.50
63445;DHT22;49573;47.682;9.170;2022-12-17T16:49:54;0.10;71.40
63445;DHT22;49573;47.682;9.170;2022-12-17T16:52:40;0.00;71.80
63445;DHT22;49573;47.682;9.170;2022-12-17T16:55:26;0.00;72.30
63445;DHT22;49573;47.682;9.170;2022-12-17T16:58:13;-3276.70;72.40
63445;DHT22;49573;47.682;9.170;2022-12-17T17:00:59;-3276.70;72.40
63445;DHT22;49573;47.682;9.170;2022-12-17T17:03:45;-3276.60;72.80
63445;DHT22;49573;47.682;9.170;2022-12-17T17:06:37;-3276.50;73.00
63445;DHT22;49573;47.682;9.170;2022-12-17T17:09:23;-3276.40;73.20
63445;DHT22;49573;47.682;9.170;2022-12-17T17:12:10;-3276.30;73.30
63445;DHT22;49573;47.682;9.170;2022-12-17T17:14:56;-3276.30;73.20
63445;DHT22;49573;47.682;9.170;2022-12-17T17:17:43;-3276.20;73.20
63445;DHT22;49573;47.682;9.170;2022-12-17T17:20:29;-3276.10;73.40
63445;DHT22;49573;47.682;9.170;2022-12-17T17:23:18;-3276.10;73.60
63445;DHT22;49573;47.682;9.170;2022-12-17T17:26:04;-3276.10;73.70
63445;DHT22;49573;47.682;9.170;2022-12-17T17:28:51;-3276.00;74.00
63445;DHT22;49573;47.682;9.170;2022-12-17T17:31:37;-3276.00;74.30
63445;DHT22;49573;47.682;9.170;2022-12-17T17:34:24;-3275.90;74.30
63445;DHT22;49573;47.682;9.170;2022-12-17T17:37:10;-3275.80;74.20
63445;DHT22;49573;47.682;9.170;2022-12-17T17:39:57;-3275.80;74.10
63445;DHT22;49573;47.682;9.170;2022-12-17T17:42:43;-3275.70;74.30
63445;DHT22;49573;47.682;9.170;2022-12-17T17:45:29;-3275.60;74.70
63445;DHT22;49573;47.682;9.170;2022-12-17T17:48:16;-3275.60;74.80
63445;DHT22;49573;47.682;9.170;2022-12-17T17:51:04;-3275.60;75.00
63445;DHT22;49573;47.682;9.170;2022-12-17T17:53:51;-3275.60;75.50
63445;DHT22;49573;47.682;9.170;2022-12-17T17:56:40;-3275.60;75.30
63445;DHT22;49573;47.682;9.170;2022-12-17T17:59:27;-3275.50;75.50
63445;DHT22;49573;47.682;9.170;2022-12-17T18:02:13;-3275.50;75.70
63445;DHT22;49573;47.682;9.170;2022-12-17T18:04:59;-3275.50;75.40
63445;DHT22;49573;47.682;9.170;2022-12-17T18:07:45;-3275.50;75.70
63445;DHT22;49573;47.682;9.170;2022-12-17T18:10:32;-3275.40;76.00
63445;DHT22;49573;47.682;9.170;2022-12-17T18:13:20;-3275.40;76.10
63445;DHT22;49573;47.682;9.170;2022-12-17T18:16:27;-3275.40;76.00
63445;DHT22;49573;47.682;9.170;2022-12-17T18:19:14;-3275.30;76.00
63445;DHT22;49573;47.682;9.170;2022-12-17T18:22:01;-3275.30;76.20
63445;DHT22;49573;47.682;9.170;2022-12-17T18:24:47;-3275.30;76.30
63445;DHT22;49573;47.682;9.170;2022-12-17T18:27:33;-3275.30;76.10
63445;DHT22;49573;47.682;9.170;2022-12-17T18:30:20;-3275.20;76.40
63445;DHT22;49573;47.682;9.170;2022-12-17T18:33:06;-3275.20;76.40
63445;DHT22;49573;47.682;9.170;2022-12-17T18:35:52;-3275.20;76.40
63445;DHT22;49573;47.682;9.170;2022-12-17T18:38:39;-3275.20;76.30